Gaz Venture — 3FLQ4 — position and weather

sailwx.info

Track history (hours):
 
Tides and Currents Weather Stations Pressure Air Temp Water Temp Dewpoint Dewpoint Depression Visibility Wind Speed Wind Dir Waves Ship Positions

Gaz Venture

Last reported at 2014-Jul-30 00:33 UTC. Time now 2014-Jul-30 01:01 UTC.
Position N 32°53' E 014°18'.

Length 120 m; draft 6.8 m.

Type: Ship. MMSI: 356141000.

Date/timePositionNaut miles runAvg speedWind from/ knotsBaromVisibWave heightAir tempDewpointWater temp
2014-Jul-30 00:33N 32°53' E 014°18'1514.2
2014-Jul-29 23:32N 32°59' E 014°02'1914.0
2014-Jul-29 22:12N 33°04' E 013°40'913.9
2014-Jul-29 21:33N 33°06' E 013°30'1211.6
2014-Jul-29 20:34N 33°02' E 013°17'9 8.6
2014-Jul-29 19:32N 32°54' E 013°12'0 0.0
2014-Jul-29 18:32N 32°54' E 013°12'0 0.0
2014-Jul-29 17:32N 32°54' E 013°12'0 0.0
2014-Jul-29 16:32N 32°54' E 013°12'2 2.2
2014-Jul-29 15:34N 32°56' E 013°13'2 1.6
2014-Jul-29 14:33N 32°57' E 013°12'0 0.0
2014-Jul-29 13:33N 32°57' E 013°12'0 0.0
2014-Jul-29 12:27N 32°57' E 013°12'0 0.0
2014-Jul-29 11:33N 32°57' E 013°12'0 0.0
2014-Jul-29 10:33N 32°57' E 013°12'0 0.0
2014-Jul-29 09:06N 32°57' E 013°12'0 0.0
2014-Jul-29 08:33N 32°57' E 013°12'0 0.0
2014-Jul-29 07:33N 32°57' E 013°12'0 0.0
2014-Jul-29 05:33N 32°57' E 013°12'0 0.0
2014-Jul-29 01:30N 32°57' E 013°12'0 0.0
2014-Jul-29 00:33N 32°57' E 013°12'0 0.0
2014-Jul-28 20:18N 32°57' E 013°12'0 0.0
2014-Jul-28 19:33N 32°57' E 013°12'0 0.3
2014-Jul-28 18:24N 32°57' E 013°12'3 3.1
2014-Jul-28 17:33N 32°54' E 013°12'0 0.0
2014-Jul-28 16:33N 32°54' E 013°12'0 0.0
2014-Jul-28 15:24N 32°54' E 013°12'0 0.0
2014-Jul-28 14:30N 32°54' E 013°12'0 0.0
2014-Jul-28 13:33N 32°54' E 013°12'0 0.0
2014-Jul-28 12:33N 32°54' E 013°12'0 0.0
2014-Jul-28 04:06N 32°54' E 013°12'0 0.0
2014-Jul-28 03:33N 32°54' E 013°12'0 0.0
2014-Jul-28 02:33N 32°54' E 013°12'0 0.0
2014-Jul-28 01:33N 32°54' E 013°12'0 0.0
2014-Jul-28 00:33N 32°54' E 013°12'0 0.0
2014-Jul-27 23:33N 32°54' E 013°12'0 0.0
2014-Jul-27 20:09N 32°54' E 013°12'0 0.0
2014-Jul-27 19:30N 32°54' E 013°12'0 0.0
2014-Jul-27 18:33N 32°54' E 013°12'0 0.0
2014-Jul-27 17:15N 32°54' E 013°12'0 0.0
2014-Jul-27 16:18N 32°54' E 013°12'0 0.0
2014-Jul-27 15:27N 32°54' E 013°12'0 0.0
2014-Jul-27 14:33N 32°54' E 013°12'0 0.0
2014-Jul-27 13:33N 32°54' E 013°12'0 0.0
2014-Jul-27 12:33N 32°54' E 013°12'0 0.0
2014-Jul-27 11:33N 32°54' E 013°12'0 0.0
2014-Jul-27 10:33N 32°54' E 013°12'0 0.0
2014-Jul-27 09:33N 32°54' E 013°12'0 0.0
2014-Jul-27 08:33N 32°54' E 013°12'0 0.0
2014-Jul-27 07:33N 32°54' E 013°12'0 0.0
2014-Jul-27 06:12N 32°54' E 013°12'0 0.0
2014-Jul-27 05:33N 32°54' E 013°12'0 0.0
2014-Jul-26 18:24N 32°54' E 013°12'0 0.0
2014-Jul-26 17:33N 32°54' E 013°12'0 0.0
2014-Jul-26 16:30N 32°54' E 013°12'0 0.0
2014-Jul-26 15:33N 32°54' E 013°12'0 0.0
2014-Jul-26 13:15N 32°54' E 013°12'0 0.0
2014-Jul-26 12:33N 32°54' E 013°12'0 0.0
2014-Jul-26 11:27N 32°54' E 013°12'0 0.0
2014-Jul-26 10:33N 32°54' E 013°12'0 0.0
2014-Jul-26 09:09N 32°54' E 013°12'0 0.0
2014-Jul-26 07:33N 32°54' E 013°12'0 0.0
2014-Jul-26 06:33N 32°54' E 013°12'0 0.0
2014-Jul-26 05:27N 32°54' E 013°12'0 0.0
2014-Jul-26 04:24N 32°54' E 013°12'0 0.0
2014-Jul-26 03:33N 32°54' E 013°12'0 0.0
2014-Jul-26 02:33N 32°54' E 013°12'0 0.0
2014-Jul-26 01:27N 32°54' E 013°12'0 0.0
2014-Jul-26 00:30N 32°54' E 013°12'0 0.0
2014-Jul-25 23:33N 32°54' E 013°12'0 0.0
2014-Jul-25 22:33N 32°54' E 013°12'0 0.0
2014-Jul-25 21:33N 32°54' E 013°12'0 0.0
2014-Jul-25 20:33N 32°54' E 013°12'0 0.0
2014-Jul-25 19:33N 32°54' E 013°12'0 0.0
2014-Jul-25 18:30N 32°54' E 013°12'0 0.0
2014-Jul-25 17:30N 32°54' E 013°12'0 0.0
2014-Jul-25 16:33N 32°54' E 013°12'0 0.0
2014-Jul-25 14:33N 32°54' E 013°12'0 0.0
2014-Jul-25 13:24N 32°54' E 013°12'0 0.0
2014-Jul-25 12:30N 32°54' E 013°12'0 0.0
2014-Jul-25 11:33N 32°54' E 013°12'0 0.0
2014-Jul-25 10:33N 32°54' E 013°12'0 0.0
2014-Jul-25 09:33N 32°54' E 013°12'0 0.0
2014-Jul-25 07:33N 32°54' E 013°12'0 0.0
2014-Jul-25 06:33N 32°54' E 013°12'0 0.0
2014-Jul-25 05:33N 32°54' E 013°12'0 0.0
2014-Jul-25 04:33N 32°54' E 013°12'0 0.0
2014-Jul-25 03:30N 32°54' E 013°12'0 0.0
2014-Jul-25 01:21N 32°54' E 013°12'0 0.0
2014-Jul-25 00:33N 32°54' E 013°12'0 0.0
2014-Jul-24 23:33N 32°54' E 013°12'0 0.0
2014-Jul-24 22:27N 32°54' E 013°12'0 0.0
2014-Jul-24 21:33N 32°54' E 013°12'0 0.0
2014-Jul-24 20:27N 32°54' E 013°12'0 0.0
2014-Jul-24 17:33N 32°54' E 013°12'0 0.0
2014-Jul-24 16:33N 32°54' E 013°12'0 0.0
2014-Jul-24 15:33N 32°54' E 013°12'0 0.0
2014-Jul-24 14:33N 32°54' E 013°12'0 0.0
2014-Jul-24 13:30N 32°54' E 013°12'  
2014-Jul-22 03:33N 32°54' E 013°12'0 0.0
2014-Jul-22 02:33N 32°54' E 013°12'0 0.0
2014-Jul-22 01:30N 32°54' E 013°12'0 0.0
2014-Jul-21 22:33N 32°54' E 013°12'0 0.0
2014-Jul-21 21:33N 32°54' E 013°12'0 0.0
2014-Jul-21 20:33N 32°54' E 013°12'0 0.0
2014-Jul-21 20:18N 32°54' E 013°12'0 0.0
2014-Jul-21 19:33N 32°54' E 013°12'0 0.0
2014-Jul-21 18:33N 32°54' E 013°12'0 0.0
2014-Jul-21 17:27N 32°54' E 013°12'0 0.0
2014-Jul-21 16:33N 32°54' E 013°12'0 0.0
2014-Jul-21 15:21N 32°54' E 013°12'0 0.0
2014-Jul-21 14:15N 32°54' E 013°12'0 0.0
2014-Jul-21 11:33N 32°54' E 013°12'0 0.0
2014-Jul-21 10:33N 32°54' E 013°12'0 0.0
2014-Jul-21 09:33N 32°54' E 013°12'0 0.0
2014-Jul-21 08:27N 32°54' E 013°12'0 0.0
2014-Jul-20 23:24N 32°54' E 013°12'0 0.0
2014-Jul-20 22:33N 32°54' E 013°12'0 0.0
2014-Jul-20 21:33N 32°54' E 013°12'0 0.0
2014-Jul-20 20:30N 32°54' E 013°12'0 0.0
2014-Jul-20 19:27N 32°54' E 013°12'0 0.0
2014-Jul-20 18:33N 32°54' E 013°12'0 0.0
2014-Jul-20 17:27N 32°54' E 013°12'0 0.0
2014-Jul-20 15:33N 32°54' E 013°12'0 0.0
2014-Jul-20 14:33N 32°54' E 013°12'0 0.0
2014-Jul-20 13:27N 32°54' E 013°12'0 0.0
2014-Jul-20 12:33N 32°54' E 013°12'0 0.0
2014-Jul-20 11:33N 32°54' E 013°12'0 0.0
2014-Jul-20 02:09N 32°54' E 013°12'  
Track history (hours):
 
Tides and Currents Weather Stations Pressure Air Temp Water Temp Dewpoint Dewpoint Depression Visibility Wind Speed Wind Dir Waves Ship Positions

Gaz Venture

Last reported at 2014-Jul-30 00:33 UTC. Time now 2014-Jul-30 01:01 UTC.
Position N 32°53' E 014°18'.

Length 120 m; draft 6.8 m.

Type: Ship. MMSI: 356141000.

Date/timePositionNaut miles runAvg speedWind from/ knotsBaromVisibWave heightAir tempDewpointWater temp
2014-Jul-30 00:33N 32°53' E 014°18'1514.2
2014-Jul-29 23:32N 32°59' E 014°02'1914.0
2014-Jul-29 22:12N 33°04' E 013°40'913.9
2014-Jul-29 21:33N 33°06' E 013°30'1211.6
2014-Jul-29 20:34N 33°02' E 013°17'9 8.6
2014-Jul-29 19:32N 32°54' E 013°12'0 0.0
2014-Jul-29 18:32N 32°54' E 013°12'0 0.0
2014-Jul-29 17:32N 32°54' E 013°12'0 0.0
2014-Jul-29 16:32N 32°54' E 013°12'2 2.2
2014-Jul-29 15:34N 32°56' E 013°13'2 1.6
2014-Jul-29 14:33N 32°57' E 013°12'0 0.0
2014-Jul-29 13:33N 32°57' E 013°12'0 0.0
2014-Jul-29 12:27N 32°57' E 013°12'0 0.0
2014-Jul-29 11:33N 32°57' E 013°12'0 0.0
2014-Jul-29 10:33N 32°57' E 013°12'0 0.0
2014-Jul-29 09:06N 32°57' E 013°12'0 0.0
2014-Jul-29 08:33N 32°57' E 013°12'0 0.0
2014-Jul-29 07:33N 32°57' E 013°12'0 0.0
2014-Jul-29 05:33N 32°57' E 013°12'0 0.0
2014-Jul-29 01:30N 32°57' E 013°12'0 0.0
2014-Jul-29 00:33N 32°57' E 013°12'0 0.0
2014-Jul-28 20:18N 32°57' E 013°12'0 0.0
2014-Jul-28 19:33N 32°57' E 013°12'0 0.3
2014-Jul-28 18:24N 32°57' E 013°12'3 3.1
2014-Jul-28 17:33N 32°54' E 013°12'0 0.0
2014-Jul-28 16:33N 32°54' E 013°12'0 0.0
2014-Jul-28 15:24N 32°54' E 013°12'0 0.0
2014-Jul-28 14:30N 32°54' E 013°12'0 0.0
2014-Jul-28 13:33N 32°54' E 013°12'0 0.0
2014-Jul-28 12:33N 32°54' E 013°12'0 0.0
2014-Jul-28 04:06N 32°54' E 013°12'0 0.0
2014-Jul-28 03:33N 32°54' E 013°12'0 0.0
2014-Jul-28 02:33N 32°54' E 013°12'0 0.0
2014-Jul-28 01:33N 32°54' E 013°12'0 0.0
2014-Jul-28 00:33N 32°54' E 013°12'0 0.0
2014-Jul-27 23:33N 32°54' E 013°12'0 0.0
2014-Jul-27 20:09N 32°54' E 013°12'0 0.0
2014-Jul-27 19:30N 32°54' E 013°12'0 0.0
2014-Jul-27 18:33N 32°54' E 013°12'0 0.0
2014-Jul-27 17:15N 32°54' E 013°12'0 0.0
2014-Jul-27 16:18N 32°54' E 013°12'0 0.0
2014-Jul-27 15:27N 32°54' E 013°12'0 0.0
2014-Jul-27 14:33N 32°54' E 013°12'0 0.0
2014-Jul-27 13:33N 32°54' E 013°12'0 0.0
2014-Jul-27 12:33N 32°54' E 013°12'0 0.0
2014-Jul-27 11:33N 32°54' E 013°12'0 0.0
2014-Jul-27 10:33N 32°54' E 013°12'0 0.0
2014-Jul-27 09:33N 32°54' E 013°12'0 0.0
2014-Jul-27 08:33N 32°54' E 013°12'0 0.0
2014-Jul-27 07:33N 32°54' E 013°12'0 0.0
2014-Jul-27 06:12N 32°54' E 013°12'0 0.0
2014-Jul-27 05:33N 32°54' E 013°12'0 0.0
2014-Jul-26 18:24N 32°54' E 013°12'0 0.0
2014-Jul-26 17:33N 32°54' E 013°12'0 0.0
2014-Jul-26 16:30N 32°54' E 013°12'0 0.0
2014-Jul-26 15:33N 32°54' E 013°12'0 0.0
2014-Jul-26 13:15N 32°54' E 013°12'0 0.0
2014-Jul-26 12:33N 32°54' E 013°12'0 0.0
2014-Jul-26 11:27N 32°54' E 013°12'0 0.0
2014-Jul-26 10:33N 32°54' E 013°12'0 0.0
2014-Jul-26 09:09N 32°54' E 013°12'0 0.0
2014-Jul-26 07:33N 32°54' E 013°12'0 0.0
2014-Jul-26 06:33N 32°54' E 013°12'0 0.0
2014-Jul-26 05:27N 32°54' E 013°12'0 0.0
2014-Jul-26 04:24N 32°54' E 013°12'0 0.0
2014-Jul-26 03:33N 32°54' E 013°12'0 0.0
2014-Jul-26 02:33N 32°54' E 013°12'0 0.0
2014-Jul-26 01:27N 32°54' E 013°12'0 0.0
2014-Jul-26 00:30N 32°54' E 013°12'0 0.0
2014-Jul-25 23:33N 32°54' E 013°12'0 0.0
2014-Jul-25 22:33N 32°54' E 013°12'0 0.0
2014-Jul-25 21:33N 32°54' E 013°12'0 0.0
2014-Jul-25 20:33N 32°54' E 013°12'0 0.0
2014-Jul-25 19:33N 32°54' E 013°12'0 0.0
2014-Jul-25 18:30N 32°54' E 013°12'0 0.0
2014-Jul-25 17:30N 32°54' E 013°12'0 0.0
2014-Jul-25 16:33N 32°54' E 013°12'0 0.0
2014-Jul-25 14:33N 32°54' E 013°12'0 0.0
2014-Jul-25 13:24N 32°54' E 013°12'0 0.0
2014-Jul-25 12:30N 32°54' E 013°12'0 0.0
2014-Jul-25 11:33N 32°54' E 013°12'0 0.0
2014-Jul-25 10:33N 32°54' E 013°12'0 0.0
2014-Jul-25 09:33N 32°54' E 013°12'0 0.0
2014-Jul-25 07:33N 32°54' E 013°12'0 0.0
2014-Jul-25 06:33N 32°54' E 013°12'0 0.0
2014-Jul-25 05:33N 32°54' E 013°12'0 0.0
2014-Jul-25 04:33N 32°54' E 013°12'0 0.0
2014-Jul-25 03:30N 32°54' E 013°12'0 0.0
2014-Jul-25 01:21N 32°54' E 013°12'0 0.0
2014-Jul-25 00:33N 32°54' E 013°12'0 0.0
2014-Jul-24 23:33N 32°54' E 013°12'0 0.0
2014-Jul-24 22:27N 32°54' E 013°12'0 0.0
2014-Jul-24 21:33N 32°54' E 013°12'0 0.0
2014-Jul-24 20:27N 32°54' E 013°12'0 0.0
2014-Jul-24 17:33N 32°54' E 013°12'0 0.0
2014-Jul-24 16:33N 32°54' E 013°12'0 0.0
2014-Jul-24 15:33N 32°54' E 013°12'0 0.0
2014-Jul-24 14:33N 32°54' E 013°12'0 0.0
2014-Jul-24 13:30N 32°54' E 013°12'  
2014-Jul-22 03:33N 32°54' E 013°12'0 0.0
2014-Jul-22 02:33N 32°54' E 013°12'0 0.0
2014-Jul-22 01:30N 32°54' E 013°12'0 0.0
2014-Jul-21 22:33N 32°54' E 013°12'0 0.0
2014-Jul-21 21:33N 32°54' E 013°12'0 0.0
2014-Jul-21 20:33N 32°54' E 013°12'0 0.0
2014-Jul-21 20:18N 32°54' E 013°12'0 0.0
2014-Jul-21 19:33N 32°54' E 013°12'0 0.0
2014-Jul-21 18:33N 32°54' E 013°12'0 0.0
2014-Jul-21 17:27N 32°54' E 013°12'0 0.0
2014-Jul-21 16:33N 32°54' E 013°12'0 0.0
2014-Jul-21 15:21N 32°54' E 013°12'0 0.0
2014-Jul-21 14:15N 32°54' E 013°12'0 0.0
2014-Jul-21 11:33N 32°54' E 013°12'0 0.0
2014-Jul-21 10:33N 32°54' E 013°12'0 0.0
2014-Jul-21 09:33N 32°54' E 013°12'0 0.0
2014-Jul-21 08:27N 32°54' E 013°12'0 0.0
2014-Jul-20 23:24N 32°54' E 013°12'0 0.0
2014-Jul-20 22:33N 32°54' E 013°12'0 0.0
2014-Jul-20 21:33N 32°54' E 013°12'0 0.0
2014-Jul-20 20:30N 32°54' E 013°12'0 0.0
2014-Jul-20 19:27N 32°54' E 013°12'0 0.0
2014-Jul-20 18:33N 32°54' E 013°12'0 0.0
2014-Jul-20 17:27N 32°54' E 013°12'0 0.0
2014-Jul-20 15:33N 32°54' E 013°12'0 0.0
2014-Jul-20 14:33N 32°54' E 013°12'0 0.0
2014-Jul-20 13:27N 32°54' E 013°12'0 0.0
2014-Jul-20 12:33N 32°54' E 013°12'0 0.0
2014-Jul-20 11:33N 32°54' E 013°12'0 0.0
2014-Jul-20 02:09N 32°54' E 013°12'  

Dump ship's entire track history